Time;durP1;ratioP1;P1;durP2;ratioP2;P2;SDS_P1;SDS_P2;PMS_P1;PMS_P2;Temp;Humidity;BMP_temperature;BMP_pressure;BME280_temperature;BME280_humidity;BME280_pressure;Samples;Min_cycle;Max_cycle;Signal;HPM_P1;HPM_P2
2022/03/05 00:02:08;;;;;;;;;;;;;;;2.84;43.48;102216.59;5050614;28;19917;-67
2022/03/05 00:04:34;;;;;;;;;;;;;;;2.68;44.26;102219.44;5049845;28;20020;-68
2022/03/05 00:06:59;;;;;;;;;;;;;;;2.27;45.09;102217.19;5049930;28;20305;-68
2022/03/05 00:09:25;;;;;;;;;;;;;;;2.27;45.27;102214.50;5050333;28;19921;-68
2022/03/05 00:11:50;;;;;;;;;;;;;;;2.41;44.83;102211.91;5048653;28;19974;-67
2022/03/05 00:14:15;;;;;;;;;;;;;;;2.42;44.31;102205.53;5050510;28;20361;-67
2022/03/05 00:16:41;;;;;;;;;;;;;;;2.50;44.63;102212.69;5050507;28;19935;-68
2022/03/05 00:19:06;;;;;;;;;;;;;;;2.47;44.27;102211.19;5049389;28;19932;-67
2022/03/05 00:21:31;;;;;;;;;;;;;;;2.64;43.94;102215.44;5049429;28;20366;-68
2022/03/05 00:23:56;;;;;;;;;;;;;;;2.51;44.26;102219.72;5031772;28;19925;-67
2022/03/05 00:26:22;;;;;;;;;;;;;;;2.46;44.00;102208.69;5049782;28;20134;-69
2022/03/05 00:28:47;;;;;;;;;;;;;;;2.58;43.48;102213.47;5032681;28;20592;-68
2022/03/05 00:31:12;;;;;;;;;;;;;;;2.44;44.11;102214.25;5049261;28;20007;-69
2022/03/05 00:33:38;;;;;;;;;;;;;;;2.43;43.89;102211.75;5049573;28;19964;-68
2022/03/05 00:36:03;;;;;;;;;;;;;;;2.31;44.46;102208.63;5049695;28;19925;-67
2022/03/05 00:38:29;;;;;;;;;;;;;;;2.49;44.18;102216.38;5049966;28;19935;-67
2022/03/05 00:40:54;;;;;;;;;;;;;;;2.54;43.78;102212.16;5049468;28;19924;-67
2022/03/05 00:43:19;;;;;;;;;;;;;;;2.40;43.91;102207.56;5049476;28;20605;-67
2022/03/05 00:45:44;;;;;;;;;;;;;;;2.40;43.95;102212.09;5050112;28;19921;-69
2022/03/05 00:48:10;;;;;;;;;;;;;;;2.29;44.20;102209.81;5050064;28;20470;-67
2022/03/05 00:50:35;;;;;;;;;;;;;;;2.50;43.43;102215.38;5063684;28;19956;-67
2022/03/05 00:53:01;;;;;;;;;;;;;;;2.58;43.33;102210.78;5050199;28;20422;-69
2022/03/05 00:55:27;;;;;;;;;;;;;;;2.32;44.13;102207.63;5047681;28;19928;-68
2022/03/05 00:57:52;;;;;;;;;;;;;;;2.49;43.16;102214.53;5049134;28;19924;-67
2022/03/05 01:00:17;;;;;;;;;;;;;;;2.29;43.43;102213.34;5049640;28;19932;-69
2022/03/05 01:02:43;;;;;;;;;;;;;;;2.30;43.27;102212.31;5048692;28;19924;-69
2022/03/05 01:05:09;;;;;;;;;;;;;;;2.14;44.09;102215.03;5049670;28;20448;-67
2022/03/05 01:07:34;;;;;;;;;;;;;;;2.18;43.97;102218.19;5049966;28;19927;-67
2022/03/05 01:09:59;;;;;;;;;;;;;;;2.04;44.03;102216.28;5049375;28;19927;-69
2022/03/05 01:12:25;;;;;;;;;;;;;;;2.25;43.78;102219.22;5049667;28;19921;-67
2022/03/05 01:14:50;;;;;;;;;;;;;;;2.15;43.84;102213.22;5047616;28;19952;-68
2022/03/05 01:17:15;;;;;;;;;;;;;;;2.06;43.79;102214.28;5048989;28;19944;-67
2022/03/05 01:19:41;;;;;;;;;;;;;;;1.95;44.36;102213.66;5050011;28;19912;-68
2022/03/05 01:22:06;;;;;;;;;;;;;;;2.01;43.86;102220.16;5049307;28;19921;-67
2022/03/05 01:24:31;;;;;;;;;;;;;;;2.16;43.55;102214.88;5049344;28;19993;-68
2022/03/05 01:26:57;;;;;;;;;;;;;;;2.05;43.75;102213.44;5049171;28;19932;-68
2022/03/05 01:29:22;;;;;;;;;;;;;;;2.06;43.61;102216.94;5049062;28;19923;-69
2022/03/05 01:31:47;;;;;;;;;;;;;;;2.02;43.70;102218.31;5049868;28;19917;-67
2022/03/05 01:34:13;;;;;;;;;;;;;;;2.02;43.46;102210.28;5048756;28;19963;-67
2022/03/05 01:36:38;;;;;;;;;;;;;;;1.99;44.03;102214.13;5048786;28;19932;-67
2022/03/05 01:39:03;;;;;;;;;;;;;;;1.98;43.80;102215.97;5049750;28;19928;-67
2022/03/05 01:41:29;;;;;;;;;;;;;;;1.98;44.19;102213.28;5049130;28;20423;-68
2022/03/05 01:43:55;;;;;;;;;;;;;;;1.98;43.69;102205.25;5049288;28;19917;-69
2022/03/05 01:46:46;;;;;;;;;;;;;;;1.98;43.93;102207.09;5048587;28;19924;-68
2022/03/05 01:49:12;;;;;;;;;;;;;;;1.70;44.28;102205.91;5028256;28;19943;-69
2022/03/05 01:51:38;;;;;;;;;;;;;;;1.95;43.88;102208.31;5029607;28;19921;-67
2022/03/05 01:54:04;;;;;;;;;;;;;;;1.95;43.84;102202.94;5028798;28;19921;-68
2022/03/05 01:56:29;;;;;;;;;;;;;;;1.89;43.70;102205.47;5038001;28;19933;-67
2022/03/05 01:58:55;;;;;;;;;;;;;;;1.94;43.73;102205.78;5049545;28;19936;-69
2022/03/05 02:01:21;;;;;;;;;;;;;;;1.96;44.10;102201.06;5029709;28;19927;-68
2022/03/05 02:03:46;;;;;;;;;;;;;;;1.73;44.35;102203.69;5048672;28;19920;-67
2022/03/05 02:06:11;;;;;;;;;;;;;;;1.78;44.12;102206.69;5048647;28;19920;-67
2022/03/05 02:08:37;;;;;;;;;;;;;;;1.79;44.39;102205.69;5048656;28;20373;-69
2022/03/05 02:11:03;;;;;;;;;;;;;;;1.83;43.54;102207.00;5049617;28;19917;-68
2022/03/05 02:13:28;;;;;;;;;;;;;;;1.87;44.05;102212.84;5048280;28;19940;-68
2022/03/05 02:15:54;;;;;;;;;;;;;;;1.69;43.87;102210.41;5048741;28;19982;-70
2022/03/05 02:18:19;;;;;;;;;;;;;;;1.74;44.24;102197.31;5048890;28;19947;-67
2022/03/05 02:20:44;;;;;;;;;;;;;;;1.78;43.63;102198.66;5048364;28;19924;-69
2022/03/05 02:23:10;;;;;;;;;;;;;;;1.75;43.49;102193.66;5048646;28;19964;-69
2022/03/05 02:25:35;;;;;;;;;;;;;;;1.69;43.88;102202.38;5049027;28;19952;-68
2022/03/05 02:28:01;;;;;;;;;;;;;;;1.73;43.84;102197.50;5048218;28;19956;-69
2022/03/05 02:30:26;;;;;;;;;;;;;;;1.68;43.96;102198.06;5048967;28;19931;-69
2022/03/05 02:32:52;;;;;;;;;;;;;;;1.74;43.52;102191.16;5047659;28;19924;-70
2022/03/05 02:35:17;;;;;;;;;;;;;;;1.69;43.84;102193.50;5048430;28;19921;-69
2022/03/05 02:37:42;;;;;;;;;;;;;;;1.68;43.74;102197.22;5049224;28;19993;-69
2022/03/05 02:40:08;;;;;;;;;;;;;;;1.64;44.20;102195.88;5048625;28;19921;-68
2022/03/05 02:42:33;;;;;;;;;;;;;;;1.59;43.96;102193.72;5048533;28;19921;-69
2022/03/05 02:44:58;;;;;;;;;;;;;;;1.63;43.93;102199.56;5048375;28;19927;-69
2022/03/05 02:47:24;;;;;;;;;;;;;;;1.50;44.67;102191.25;5048167;28;20391;-68
2022/03/05 02:49:49;;;;;;;;;;;;;;;1.47;44.21;102194.28;5049472;28;20480;-70
2022/03/05 02:52:14;;;;;;;;;;;;;;;1.44;44.55;102190.09;5048839;28;19925;-68
2022/03/05 02:54:39;;;;;;;;;;;;;;;1.43;44.15;102187.59;5048948;28;19980;-68
2022/03/05 02:57:05;;;;;;;;;;;;;;;1.48;44.16;102188.75;5051273;28;20548;-68
2022/03/05 02:59:30;;;;;;;;;;;;;;;1.32;45.04;102195.97;5051818;28;20470;-69
2022/03/05 03:01:56;;;;;;;;;;;;;;;1.33;44.50;102203.00;5053023;28;20069;-68
2022/03/05 03:04:21;;;;;;;;;;;;;;;1.41;44.59;102189.63;5051793;28;19924;-68
2022/03/05 03:06:46;;;;;;;;;;;;;;;1.34;44.84;102192.13;5051945;28;20391;-69
2022/03/05 03:09:11;;;;;;;;;;;;;;;1.30;44.59;102189.97;5052529;28;20413;-68
2022/03/05 03:11:37;;;;;;;;;;;;;;;1.30;44.32;102190.81;5051996;28;19921;-69
2022/03/05 03:14:02;;;;;;;;;;;;;;;1.23;45.00;102187.16;5052309;28;19916;-71
2022/03/05 03:16:29;;;;;;;;;;;;;;;1.27;44.39;102183.13;5051957;28;20486;-69
2022/03/05 03:18:54;;;;;;;;;;;;;;;1.25;44.53;102185.16;5051576;28;19932;-69
2022/03/05 03:21:19;;;;;;;;;;;;;;;1.22;44.68;102185.47;5051929;28;19921;-69
2022/03/05 03:23:45;;;;;;;;;;;;;;;1.25;44.49;102181.63;5051471;28;19920;-68
2022/03/05 03:26:10;;;;;;;;;;;;;;;1.34;44.19;102184.09;5051759;28;19917;-69
2022/03/05 03:28:35;;;;;;;;;;;;;;;1.33;44.03;102192.31;5052860;28;20315;-69
2022/03/05 03:31:01;;;;;;;;;;;;;;;1.27;44.26;102190.31;5051222;28;20035;-70
2022/03/05 03:33:26;;;;;;;;;;;;;;;1.16;44.50;102196.00;5051260;28;20363;-69
2022/03/05 03:35:51;;;;;;;;;;;;;;;1.29;44.02;102199.00;5051816;28;19974;-68
2022/03/05 03:38:17;;;;;;;;;;;;;;;1.36;44.13;102192.78;5050550;28;19966;-69
2022/03/05 03:40:42;;;;;;;;;;;;;;;1.30;44.56;102189.97;5052249;28;20380;-68
2022/03/05 03:43:07;;;;;;;;;;;;;;;1.08;44.88;102194.19;5051385;28;20584;-69
2022/03/05 03:45:33;;;;;;;;;;;;;;;1.02;45.37;102195.69;5051397;28;19920;-69
2022/03/05 03:47:58;;;;;;;;;;;;;;;1.01;45.53;102203.88;5051574;28;20477;-69
2022/03/05 03:50:23;;;;;;;;;;;;;;;1.00;45.48;102199.53;5050936;28;19929;-70
2022/03/05 03:52:49;;;;;;;;;;;;;;;0.82;45.94;102198.91;5051528;28;19921;-69
2022/03/05 03:55:16;;;;;;;;;;;;;;;0.91;45.12;102192.53;5051527;28;20012;-69
2022/03/05 03:57:43;;;;;;;;;;;;;;;0.90;44.94;102197.03;5050762;28;19932;-70
2022/03/05 04:00:09;;;;;;;;;;;;;;;0.98;45.24;102205.06;5050889;28;19932;-71
2022/03/05 04:02:34;;;;;;;;;;;;;;;0.95;44.92;102193.88;5050797;28;20280;-69
2022/03/05 04:05:00;;;;;;;;;;;;;;;0.96;44.79;102203.53;5051159;28;20011;-69
2022/03/05 04:10:09;;;;;;;;;;;;;;;0.97;44.45;102197.22;5050828;28;19947;-70
2022/03/05 04:12:35;;;;;;;;;;;;;;;0.98;45.04;102196.19;5050965;28;19947;-69
2022/03/05 04:15:01;;;;;;;;;;;;;;;0.93;44.53;102196.72;5050595;28;19921;-71
2022/03/05 04:17:26;;;;;;;;;;;;;;;0.89;45.13;102198.06;5050575;28;19928;-70
2022/03/05 04:19:51;;;;;;;;;;;;;;;0.99;44.82;102200.56;5051254;28;20461;-71
2022/03/05 04:22:16;;;;;;;;;;;;;;;1.01;44.90;102194.03;5050703;28;19928;-69
2022/03/05 04:24:42;;;;;;;;;;;;;;;0.93;44.48;102202.06;5050778;28;20304;-69
2022/03/05 04:27:07;;;;;;;;;;;;;;;0.88;45.23;102195.53;5050557;28;19928;-69
2022/03/05 04:29:33;;;;;;;;;;;;;;;0.95;44.92;102197.38;5050914;28;19928;-70
2022/03/05 04:31:58;;;;;;;;;;;;;;;0.94;44.65;102193.03;5033643;28;19916;-70
2022/03/05 04:34:23;;;;;;;;;;;;;;;0.80;44.85;102195.56;5050070;28;19921;-70
2022/03/05 04:36:48;;;;;;;;;;;;;;;0.89;45.15;102205.22;5050425;28;19929;-69
2022/03/05 04:39:14;;;;;;;;;;;;;;;0.92;44.62;102200.38;5050445;28;19999;-70
2022/03/05 04:41:39;;;;;;;;;;;;;;;0.89;44.65;102200.72;5050350;28;19921;-70
2022/03/05 04:44:05;;;;;;;;;;;;;;;0.98;44.67;102201.53;5050906;28;19971;-70
2022/03/05 04:46:30;;;;;;;;;;;;;;;0.80;44.59;102209.72;5050330;28;19921;-69
2022/03/05 04:48:55;;;;;;;;;;;;;;;0.94;44.67;102202.88;5049727;28;19925;-70
2022/03/05 04:51:21;;;;;;;;;;;;;;;0.90;44.20;102197.03;5050440;28;19930;-70
2022/03/05 04:53:46;;;;;;;;;;;;;;;0.93;44.70;102211.91;5049642;28;19925;-69
2022/03/05 04:56:11;;;;;;;;;;;;;;;0.85;44.04;102210.09;5049812;28;19913;-70
2022/03/05 04:58:37;;;;;;;;;;;;;;;0.78;45.30;102208.25;5050628;28;19919;-68
2022/03/05 05:01:03;;;;;;;;;;;;;;;0.91;44.31;102212.09;5048745;28;19968;-69
2022/03/05 05:03:28;;;;;;;;;;;;;;;1.04;44.14;102212.41;5049848;28;19931;-70
2022/03/05 05:05:53;;;;;;;;;;;;;;;1.00;44.55;102216.41;5061304;28;20734;-68
2022/03/05 05:08:18;;;;;;;;;;;;;;;0.76;44.56;102213.72;5029447;28;19913;-69
2022/03/05 05:10:43;;;;;;;;;;;;;;;0.74;44.57;102210.41;5035408;28;19916;-70
2022/03/05 05:13:09;;;;;;;;;;;;;;;0.99;44.08;102211.25;5029545;28;19928;-69
2022/03/05 05:15:34;;;;;;;;;;;;;;;0.75;44.47;102212.09;5048760;28;20304;-70
2022/03/05 05:18:00;;;;;;;;;;;;;;;0.78;44.50;102209.06;5032534;28;20377;-68
2022/03/05 05:20:25;;;;;;;;;;;;;;;0.72;44.60;102212.41;5032069;28;19920;-69
2022/03/05 05:22:50;;;;;;;;;;;;;;;0.77;43.95;102209.22;5050306;28;19917;-71
2022/03/05 05:25:16;;;;;;;;;;;;;;;0.79;45.07;102209.91;5049406;28;20356;-70
2022/03/05 05:27:41;;;;;;;;;;;;;;;0.82;44.38;102212.25;5049410;28;19971;-70
2022/03/05 05:30:07;;;;;;;;;;;;;;;0.63;45.45;102204.56;5049833;28;19921;-70
2022/03/05 05:32:33;;;;;;;;;;;;;;;0.85;44.07;102204.72;5048747;28;19921;-70
2022/03/05 05:34:58;;;;;;;;;;;;;;;0.73;44.65;102208.75;5049700;28;19923;-70
2022/03/05 05:37:23;;;;;;;;;;;;;;;0.42;45.44;102217.56;5049192;28;19964;-69
2022/03/05 05:39:49;;;;;;;;;;;;;;;0.61;45.23;102210.06;5047293;28;20293;-71
2022/03/05 05:42:14;;;;;;;;;;;;;;;0.60;45.25;102204.91;5049279;28;20008;-70
2022/03/05 05:44:39;;;;;;;;;;;;;;;0.56;45.00;102214.25;5048845;28;19960;-70
2022/03/05 05:47:05;;;;;;;;;;;;;;;0.77;44.42;102218.09;5049424;28;19916;-69
2022/03/05 05:49:30;;;;;;;;;;;;;;;0.60;44.89;102218.25;5049343;28;20549;-70
2022/03/05 05:51:55;;;;;;;;;;;;;;;0.68;45.18;102213.72;5048931;28;19925;-71
2022/03/05 05:54:22;;;;;;;;;;;;;;;0.69;44.88;102209.22;5048870;28;19921;-70
2022/03/05 05:56:47;;;;;;;;;;;;;;;0.59;45.55;102220.06;5049028;28;20012;-70
2022/03/05 05:59:12;;;;;;;;;;;;;;;0.46;45.50;102210.88;5048537;28;20046;-69
2022/03/05 06:01:37;;;;;;;;;;;;;;;0.45;45.69;102218.06;5049480;28;20445;-70
2022/03/05 06:04:03;;;;;;;;;;;;;;;0.48;45.19;102220.41;5048132;28;20335;-70
2022/03/05 06:06:28;;;;;;;;;;;;;;;0.54;45.02;102221.56;5048321;28;20404;-69
2022/03/05 06:08:53;;;;;;;;;;;;;;;0.48;44.73;102219.56;5049197;28;19925;-70
2022/03/05 06:11:19;;;;;;;;;;;;;;;0.39;45.59;102220.56;5029595;28;20698;-69
2022/03/05 06:13:44;;;;;;;;;;;;;;;0.43;45.07;102224.56;5049501;28;20391;-70
2022/03/05 06:16:10;;;;;;;;;;;;;;;0.40;45.46;102224.88;5048604;28;19921;-71
2022/03/05 06:18:35;;;;;;;;;;;;;;;0.31;45.68;102226.69;5048483;28;19970;-70
2022/03/05 06:21:01;;;;;;;;;;;;;;;0.37;45.64;102228.72;5048701;28;20373;-71
2022/03/05 06:23:26;;;;;;;;;;;;;;;0.23;46.00;102232.00;5048034;28;19921;-69
2022/03/05 06:25:52;;;;;;;;;;;;;;;0.48;45.33;102228.41;5049055;28;20368;-70
2022/03/05 06:28:17;;;;;;;;;;;;;;;0.36;45.78;102239.56;5049079;28;20343;-70
2022/03/05 06:30:43;;;;;;;;;;;;;;;0.49;45.33;102242.59;5048956;28;19925;-69
2022/03/05 06:33:08;;;;;;;;;;;;;;;0.36;46.14;102236.91;5052946;28;19921;-70
2022/03/05 06:35:33;;;;;;;;;;;;;;;0.47;45.55;102239.25;5052499;28;19955;-69
2022/03/05 06:37:59;;;;;;;;;;;;;;;0.50;45.02;102236.25;5052839;28;19921;-71
2022/03/05 06:40:24;;;;;;;;;;;;;;;0.43;45.25;102240.59;5052667;28;19921;-70
2022/03/05 06:42:49;;;;;;;;;;;;;;;0.45;45.43;102235.91;5034297;28;19963;-70
2022/03/05 06:45:14;;;;;;;;;;;;;;;0.38;46.02;102237.56;5052026;28;19921;-70
2022/03/05 06:47:40;;;;;;;;;;;;;;;0.57;44.94;102238.09;5052542;28;20006;-70
2022/03/05 06:50:07;;;;;;;;;;;;;;;0.67;44.38;102237.94;5052148;28;19970;-71
2022/03/05 06:52:32;;;;;;;;;;;;;;;0.58;45.91;102244.28;5051971;28;20375;-71
2022/03/05 06:54:58;;;;;;;;;;;;;;;0.63;44.89;102245.44;5051092;28;19987;-71
2022/03/05 06:57:23;;;;;;;;;;;;;;;0.67;44.93;102246.78;5050402;28;20389;-70
2022/03/05 06:59:49;;;;;;;;;;;;;;;0.88;44.47;102235.59;5051037;28;19947;-70
2022/03/05 07:02:14;;;;;;;;;;;;;;;0.83;44.70;102233.47;5050771;28;20588;-70
2022/03/05 07:04:40;;;;;;;;;;;;;;;0.69;45.33;102238.63;5050617;28;20384;-70
2022/03/05 07:07:06;;;;;;;;;;;;;;;0.94;45.02;102242.97;5049456;28;19921;-72
2022/03/05 07:09:32;;;;;;;;;;;;;;;0.88;45.00;102240.94;5050485;28;20285;-71
2022/03/05 07:11:57;;;;;;;;;;;;;;;0.96;44.53;102246.28;5050565;28;19925;-70
2022/03/05 07:14:23;;;;;;;;;;;;;;;1.02;45.02;102250.97;5051013;28;19923;-71
2022/03/05 07:16:48;;;;;;;;;;;;;;;1.19;44.32;102251.81;5051123;28;19921;-72
2022/03/05 07:19:13;;;;;;;;;;;;;;;1.15;43.99;102256.66;5051073;28;19947;-70
2022/03/05 07:21:38;;;;;;;;;;;;;;;1.29;44.00;102253.31;5051644;28;19932;-70
2022/03/05 07:24:04;;;;;;;;;;;;;;;1.13;44.82;102265.84;5051004;28;19925;-72
2022/03/05 07:26:29;;;;;;;;;;;;;;;1.49;44.24;102262.63;5051836;28;19933;-69
2022/03/05 07:28:54;;;;;;;;;;;;;;;1.28;44.17;102262.31;5051669;28;19921;-72
2022/03/05 07:31:20;;;;;;;;;;;;;;;1.22;44.79;102262.16;5051349;28;19920;-69
2022/03/05 07:33:45;;;;;;;;;;;;;;;1.54;44.35;102270.97;5051510;28;20446;-71
2022/03/05 07:36:10;;;;;;;;;;;;;;;1.41;44.53;102264.50;5051052;28;19921;-69
2022/03/05 07:38:35;;;;;;;;;;;;;;;1.62;44.01;102273.66;5051375;28;20372;-70
2022/03/05 07:41:01;;;;;;;;;;;;;;;2.04;43.54;102264.47;5051596;28;19966;-70
2022/03/05 07:43:26;;;;;;;;;;;;;;;2.02;43.33;102268.16;5049672;28;19921;-70
2022/03/05 07:45:52;;;;;;;;;;;;;;;1.94;43.84;102272.69;5051599;28;19921;-70
2022/03/05 07:48:21;;;;;;;;;;;;;;;1.95;43.76;102269.03;5051189;28;19925;-70
2022/03/05 07:50:47;;;;;;;;;;;;;;;2.21;43.32;102277.63;5050184;28;20008;-69
2022/03/05 07:53:13;;;;;;;;;;;;;;;2.33;43.16;102275.41;5050938;28;20361;-70
2022/03/05 07:55:38;;;;;;;;;;;;;;;2.31;42.85;102275.59;5050981;28;19960;-70
2022/03/05 07:58:04;;;;;;;;;;;;;;;2.41;42.32;102272.69;5050497;28;20491;-70
2022/03/05 08:00:29;;;;;;;;;;;;;;;2.32;42.85;102282.59;5050153;28;20412;-69
2022/03/05 08:02:54;;;;;;;;;;;;;;;2.40;42.57;102281.72;5049343;28;20432;-70
2022/03/05 08:05:20;;;;;;;;;;;;;;;2.54;42.57;102278.28;5048152;28;19919;-69
2022/03/05 08:07:45;;;;;;;;;;;;;;;2.17;43.47;102281.66;5050408;28;19924;-72
2022/03/05 08:10:10;;;;;;;;;;;;;;;1.85;44.44;102287.94;5049900;28;20422;-71
2022/03/05 08:12:36;;;;;;;;;;;;;;;2.31;43.25;102282.78;5049501;28;20008;-68
2022/03/05 08:15:02;;;;;;;;;;;;;;;2.72;42.33;102286.91;5048127;28;20003;-70
2022/03/05 08:17:27;;;;;;;;;;;;;;;2.79;42.26;102290.53;5049299;28;20433;-71
2022/03/05 08:19:52;;;;;;;;;;;;;;;3.00;41.92;102284.53;5049804;28;19916;-71
2022/03/05 08:22:18;;;;;;;;;;;;;;;2.71;41.97;102287.88;5049489;28;19925;-71
2022/03/05 08:24:43;;;;;;;;;;;;;;;2.89;42.11;102288.44;5049510;28;19920;-71
2022/03/05 08:27:08;;;;;;;;;;;;;;;3.09;41.64;102288.78;5047204;28;19928;-71
2022/03/05 08:29:33;;;;;;;;;;;;;;;2.77;42.55;102292.53;5049175;28;20015;-71
2022/03/05 08:31:58;;;;;;;;;;;;;;;3.02;41.75;102293.22;5049699;28;19917;-69
2022/03/05 08:34:24;;;;;;;;;;;;;;;3.32;41.26;102294.94;5030917;28;19998;-70
2022/03/05 08:36:49;;;;;;;;;;;;;;;2.62;42.60;102281.78;5048794;28;19925;-71
2022/03/05 08:39:14;;;;;;;;;;;;;;;3.33;41.42;102285.91;5049132;28;19921;-70
2022/03/05 08:41:40;;;;;;;;;;;;;;;3.55;41.03;102291.22;5048503;28;19939;-70
2022/03/05 08:44:05;;;;;;;;;;;;;;;3.08;42.24;102285.25;5048951;28;19923;-70
2022/03/05 08:46:30;;;;;;;;;;;;;;;2.97;42.31;102293.75;5048419;28;19921;-69
2022/03/05 08:48:55;;;;;;;;;;;;;;;3.29;42.27;102288.13;5048220;28;19924;-69
2022/03/05 08:51:21;;;;;;;;;;;;;;;3.10;42.36;102296.66;5049427;28;20310;-68
2022/03/05 08:53:46;;;;;;;;;;;;;;;2.50;43.17;102293.91;5048859;28;20448;-69
2022/03/05 08:56:11;;;;;;;;;;;;;;;3.48;41.59;102292.13;5047979;28;19999;-68
2022/03/05 08:58:36;;;;;;;;;;;;;;;2.99;42.06;102296.25;5049343;28;19925;-69
2022/03/05 09:01:03;;;;;;;;;;;;;;;3.54;41.32;102294.91;5045471;28;20224;-70
2022/03/05 09:03:29;;;;;;;;;;;;;;;4.00;40.30;102295.59;5048870;28;20381;-70
2022/03/05 09:05:54;;;;;;;;;;;;;;;3.55;41.32;102291.22;5048769;28;19924;-68
2022/03/05 09:08:20;;;;;;;;;;;;;;;3.59;41.26;102295.19;5048461;28;20011;-70
2022/03/05 09:10:46;;;;;;;;;;;;;;;3.31;42.24;102301.34;5049753;28;20395;-72
2022/03/05 09:13:11;;;;;;;;;;;;;;;3.23;42.21;102293.38;5048255;28;19928;-69
2022/03/05 09:15:37;;;;;;;;;;;;;;;4.13;40.63;102297.66;5048209;28;20450;-69
2022/03/05 09:18:02;;;;;;;;;;;;;;;3.68;40.83;102296.78;5046270;28;19974;-68
2022/03/05 09:20:28;;;;;;;;;;;;;;;4.19;40.23;102303.13;5047162;28;21063;-68
2022/03/05 09:22:53;;;;;;;;;;;;;;;4.42;40.16;102300.28;5047859;28;19917;-68
2022/03/05 09:25:19;;;;;;;;;;;;;;;4.34;40.55;102295.00;5046882;28;20007;-70
2022/03/05 09:27:45;;;;;;;;;;;;;;;4.60;39.72;102284.59;5046918;28;19960;-73
2022/03/05 09:30:10;;;;;;;;;;;;;;;4.14;40.46;102288.59;5047257;28;19931;-70
2022/03/05 09:32:36;;;;;;;;;;;;;;;3.38;42.29;102288.88;5047439;28;19982;-69
2022/03/05 09:35:03;;;;;;;;;;;;;;;3.63;41.72;102293.00;5049276;28;20340;-70
2022/03/05 09:37:30;;;;;;;;;;;;;;;3.86;41.56;102291.06;5048899;28;19925;-69
2022/03/05 09:39:55;;;;;;;;;;;;;;;4.29;40.79;102292.06;5048843;28;20576;-70
2022/03/05 09:42:20;;;;;;;;;;;;;;;4.04;41.69;102288.84;5048619;28;19921;-70
2022/03/05 09:44:45;;;;;;;;;;;;;;;3.95;41.40;102292.63;5049334;28;20016;-70
2022/03/05 09:47:11;;;;;;;;;;;;;;;4.50;40.91;102286.75;5050557;28;20346;-70
2022/03/05 09:49:38;;;;;;;;;;;;;;;4.90;40.13;102279.94;5049440;28;19964;-69
2022/03/05 09:52:03;;;;;;;;;;;;;;;5.21;38.58;102280.44;5048925;28;19920;-69
2022/03/05 09:54:28;;;;;;;;;;;;;;;5.62;38.08;102288.59;5048690;28;20280;-72
2022/03/05 09:56:54;;;;;;;;;;;;;;;5.00;39.61;102281.28;5048532;28;19925;-69
2022/03/05 09:59:20;;;;;;;;;;;;;;;5.84;38.03;102280.31;5048163;28;19943;-69
2022/03/05 10:01:45;;;;;;;;;;;;;;;4.91;39.55;102274.34;5048359;28;19924;-70
2022/03/05 10:04:23;;;;;;;;;;;;;;;5.74;38.12;102281.69;5048504;28;20342;-68
2022/03/05 10:07:07;;;;;;;;;;;;;;;5.48;38.22;102277.75;5046100;28;19929;-69
2022/03/05 10:09:32;;;;;;;;;;;;;;;4.94;39.63;102278.53;5047218;28;19925;-68
2022/03/05 10:11:58;;;;;;;;;;;;;;;6.02;37.58;102274.38;5047134;28;19991;-68
2022/03/05 10:14:23;;;;;;;;;;;;;;;4.83;39.32;102274.47;5046478;28;19917;-70
2022/03/05 10:16:48;;;;;;;;;;;;;;;5.81;38.21;102274.50;5047931;28;20016;-69
2022/03/05 10:19:21;;;;;;;;;;;;;;;5.38;38.67;102274.56;5046892;28;19956;-70
2022/03/05 10:21:59;;;;;;;;;;;;;;;5.12;39.51;102282.44;5047747;28;19963;-70
2022/03/05 10:24:35;;;;;;;;;;;;;;;5.59;38.57;102278.25;5047127;28;20280;-68
2022/03/05 10:27:00;;;;;;;;;;;;;;;6.61;36.79;102278.16;5046859;28;19920;-68
2022/03/05 10:29:27;;;;;;;;;;;;;;;6.26;37.21;102274.69;5049542;28;19924;-70
2022/03/05 10:31:56;;;;;;;;;;;;;;;5.77;38.45;102273.22;5048618;28;19913;-70
2022/03/05 10:34:22;;;;;;;;;;;;;;;6.19;37.87;102275.72;5048017;28;19928;-68
2022/03/05 10:37:00;;;;;;;;;;;;;;;6.62;36.47;102271.72;5048191;28;19925;-69
2022/03/05 10:39:26;;;;;;;;;;;;;;;6.45;36.97;102274.97;5048393;28;20002;-70
2022/03/05 10:41:52;;;;;;;;;;;;;;;6.79;36.29;102269.47;5043988;28;20545;-70
2022/03/05 10:44:19;;;;;;;;;;;;;;;6.97;36.38;102273.22;5044658;28;19921;-69
2022/03/05 10:46:44;;;;;;;;;;;;;;;7.29;36.17;102273.50;5045515;28;20053;-69
2022/03/05 10:49:14;;;;;;;;;;;;;;;6.55;36.61;102268.19;5045971;28;20019;-70
2022/03/05 10:51:39;;;;;;;;;;;;;;;7.25;35.50;102267.69;5046309;28;19921;-70
2022/03/05 10:54:04;;;;;;;;;;;;;;;7.70;35.32;102266.00;5047591;28;19916;-69
2022/03/05 10:56:31;;;;;;;;;;;;;;;7.05;35.01;102267.66;5047469;28;19947;-69
2022/03/05 10:59:03;;;;;;;;;;;;;;;6.64;35.56;102271.53;5047777;28;19917;-71
2022/03/05 11:01:29;;;;;;;;;;;;;;;6.41;36.11;102269.16;5046986;28;19925;-69
2022/03/05 11:03:54;;;;;;;;;;;;;;;7.91;34.11;102271.13;5048394;28;19974;-69
2022/03/05 11:06:20;;;;;;;;;;;;;;;7.92;33.82;102264.66;5047598;28;19920;-71
2022/03/05 11:08:46;;;;;;;;;;;;;;;7.17;34.52;102263.31;5047872;28;19920;-68
2022/03/05 11:11:12;;;;;;;;;;;;;;;7.02;35.88;102259.97;5047975;28;19928;-71
2022/03/05 11:13:38;;;;;;;;;;;;;;;7.46;35.27;102256.69;5047852;28;19917;-70
2022/03/05 11:16:04;;;;;;;;;;;;;;;7.02;35.45;102269.91;5047771;28;19928;-68
2022/03/05 11:18:29;;;;;;;;;;;;;;;7.82;34.00;102259.72;5050759;28;19929;-68
2022/03/05 11:20:55;;;;;;;;;;;;;;;8.63;33.26;102260.00;5051316;28;20296;-69
2022/03/05 11:23:21;;;;;;;;;;;;;;;7.77;33.88;102266.78;5065157;28;19917;-69
2022/03/05 11:25:46;;;;;;;;;;;;;;;7.87;33.77;102262.63;5051425;28;19943;-69
2022/03/05 11:28:17;;;;;;;;;;;;;;;7.66;34.85;102259.34;5050907;28;20376;-70
2022/03/05 11:30:43;;;;;;;;;;;;;;;7.40;35.19;102264.78;5051024;28;19921;-70
2022/03/05 11:33:10;;;;;;;;;;;;;;;7.80;33.57;102261.78;5050818;28;20022;-70
2022/03/05 11:35:42;;;;;;;;;;;;;;;7.92;34.02;102252.00;5049731;28;19921;-70
2022/03/05 11:38:28;;;;;;;;;;;;;;;9.28;32.53;102251.41;5050664;28;19991;-69
2022/03/05 11:40:53;;;;;;;;;;;;;;;8.79;33.17;102245.97;5049612;28;20015;-71
2022/03/05 11:43:19;;;;;;;;;;;;;;;9.31;32.01;102242.84;5050246;28;20705;-70
2022/03/05 11:45:48;;;;;;;;;;;;;;;8.61;33.12;102246.72;5050465;28;19970;-70
2022/03/05 11:48:22;;;;;;;;;;;;;;;9.47;31.48;102236.88;5050247;28;19999;-69
2022/03/05 11:50:51;;;;;;;;;;;;;;;9.50;31.70;102244.59;5047677;28;20368;-70
2022/03/05 11:53:16;;;;;;;;;;;;;;;8.70;32.95;102248.09;5049831;28;19923;-69
2022/03/05 11:55:42;;;;;;;;;;;;;;;8.33;33.54;102246.22;5050674;28;19913;-70
2022/03/05 11:58:09;;;;;;;;;;;;;;;8.11;33.56;102258.38;5049878;28;20311;-71
2022/03/05 12:00:35;;;;;;;;;;;;;;;8.96;32.36;102242.50;5050166;28;20314;-71
2022/03/05 12:03:03;;;;;;;;;;;;;;;8.48;32.55;102245.97;5049894;28;19944;-71
2022/03/05 12:05:38;;;;;;;;;;;;;;;9.53;31.90;102241.41;5049018;28;19967;-71
2022/03/05 12:08:09;;;;;;;;;;;;;;;9.94;31.07;102234.53;5048462;28;19913;-70
2022/03/05 12:10:35;;;;;;;;;;;;;;;9.68;30.37;102243.78;5048259;28;20020;-70
2022/03/05 12:13:03;;;;;;;;;;;;;;;9.81;30.65;102239.03;5048365;28;19924;-72
2022/03/05 12:15:34;;;;;;;;;;;;;;;9.90;30.48;102236.03;5047898;28;19931;-70
2022/03/05 12:18:00;;;;;;;;;;;;;;;9.86;30.35;102238.38;5047844;28;19964;-70
2022/03/05 12:20:34;;;;;;;;;;;;;;;10.04;30.04;102241.06;5048214;28;19963;-70
2022/03/05 12:23:06;;;;;;;;;;;;;;;9.59;30.28;102234.25;5048143;28;19916;-71
2022/03/05 12:25:33;;;;;;;;;;;;;;;9.33;31.60;102231.81;5049018;28;19968;-71
2022/03/05 12:27:59;;;;;;;;;;;;;;;9.87;30.39;102237.31;5049203;28;19966;-69
2022/03/05 12:30:28;;;;;;;;;;;;;;;9.55;30.79;102241.19;5049314;28;19925;-69
2022/03/05 12:32:58;;;;;;;;;;;;;;;9.75;30.14;102239.94;5047179;28;19929;-70
2022/03/05 12:35:23;;;;;;;;;;;;;;;10.50;29.22;102232.34;5049636;28;20335;-70
2022/03/05 12:37:49;;;;;;;;;;;;;;;10.04;29.81;102230.22;5049577;28;19916;-69
2022/03/05 12:40:15;;;;;;;;;;;;;;;10.22;29.33;102224.78;5049524;28;19921;-69
2022/03/05 12:42:47;;;;;;;;;;;;;;;9.62;30.15;102217.56;5048840;28;19925;-69